Time;durP1;ratioP1;P1;durP2;ratioP2;P2;SDS_P1;SDS_P2;PMS_P1;PMS_P2;Temp;Humidity;BMP_temperature;BMP_pressure;BME280_temperature;BME280_humidity;BME280_pressure;Samples;Min_cycle;Max_cycle;Signal;HPM_P1;HPM_P2
2022/03/06 00:00:08;;;;;;;47.72;31.13;;;;;;;1.14;79.82;102147.53;5075563;28;20024;-70
2022/03/06 00:02:34;;;;;;;48.47;31.95;;;;;;;1.18;80.01;102146.00;5082354;28;20037;-71
2022/03/06 00:04:59;;;;;;;47.00;30.50;;;;;;;1.13;79.78;102155.25;5075764;28;20539;-71
2022/03/06 00:07:24;;;;;;;46.60;31.25;;;;;;;0.93;80.24;102159.19;5075381;28;20047;-69
2022/03/06 00:09:50;;;;;;;50.00;33.03;;;;;;;0.86;80.22;102158.81;5075702;28;20033;-69
2022/03/06 00:12:15;;;;;;;51.60;34.13;;;;;;;0.85;81.46;102156.09;5075525;28;20042;-70
2022/03/06 00:14:40;;;;;;;52.22;33.67;;;;;;;0.82;82.21;102158.50;5075591;28;20032;-71
2022/03/06 00:17:06;;;;;;;47.47;31.73;;;;;;;0.78;82.28;102153.91;5075581;28;20052;-71
2022/03/06 00:19:31;;;;;;;50.78;33.33;;;;;;;0.75;82.85;102158.91;5075053;28;20090;-71
2022/03/06 00:21:56;;;;;;;49.03;31.77;;;;;;;0.62;82.17;102150.28;5075263;28;20025;-69
2022/03/06 00:24:22;;;;;;;48.97;31.70;;;;;;;0.57;83.06;102151.69;5075554;28;20537;-69
2022/03/06 00:26:47;;;;;;;53.25;34.50;;;;;;;0.52;83.35;102161.81;5073720;28;20081;-71
2022/03/06 00:29:13;;;;;;;49.42;31.73;;;;;;;0.46;84.16;102160.50;5075205;28;20024;-68
2022/03/06 00:31:39;;;;;;;50.38;32.13;;;;;;;0.30;84.09;102154.25;5073458;28;20068;-69
2022/03/06 00:34:04;;;;;;;47.38;30.73;;;;;;;0.37;84.51;102165.97;5075006;28;20440;-70
2022/03/06 00:36:30;;;;;;;47.83;31.17;;;;;;;0.25;85.02;102155.66;5075232;28;20442;-69
2022/03/06 00:38:55;;;;;;;47.45;30.77;;;;;;;0.23;85.75;102172.84;5075396;28;20030;-69
2022/03/06 00:41:22;;;;;;;47.38;31.00;;;;;;;0.19;85.58;102170.88;5074934;28;20060;-68
2022/03/06 00:43:48;;;;;;;47.08;30.42;;;;;;;0.21;86.58;102171.84;5074779;28;20031;-69
2022/03/06 00:46:13;;;;;;;47.33;30.90;;;;;;;0.24;87.30;102164.25;5075034;28;20387;-69
2022/03/06 00:48:39;;;;;;;48.72;31.15;;;;;;;0.27;86.83;102184.38;5074689;28;20021;-69
2022/03/06 00:51:04;;;;;;;47.45;30.52;;;;;;;0.22;86.86;102188.34;5074826;28;20226;-68
2022/03/06 00:53:29;;;;;;;46.65;29.83;;;;;;;0.17;86.17;102181.16;5074869;28;20483;-68
2022/03/06 00:55:55;;;;;;;46.92;30.20;;;;;;;0.17;87.04;102194.16;5074739;28;20460;-69
2022/03/06 00:58:20;;;;;;;47.63;30.90;;;;;;;0.09;87.73;102195.34;5074760;28;20020;-72
2022/03/06 01:00:47;;;;;;;46.97;30.80;;;;;;;0.08;88.68;102190.03;5074592;28;20051;-72
2022/03/06 01:03:16;;;;;;;48.58;31.20;;;;;;;0.08;88.98;102193.53;5070211;28;20044;-72
2022/03/06 01:05:42;;;;;;;48.92;30.73;;;;;;;0.16;89.92;102191.44;5081721;28;20032;-72
2022/03/06 01:08:08;;;;;;;48.63;31.52;;;;;;;0.20;89.27;102188.25;5074363;28;20032;-72
2022/03/06 01:10:35;;;;;;;48.72;31.10;;;;;;;0.20;88.92;102185.66;5074310;28;20035;-72
2022/03/06 01:13:01;;;;;;;46.47;30.08;;;;;;;0.21;88.43;102183.97;5074468;28;20486;-72
2022/03/06 01:15:27;;;;;;;50.03;32.25;;;;;;;0.13;88.38;102196.44;5070068;28;20107;-72
2022/03/06 01:17:52;;;;;;;49.42;32.55;;;;;;;0.09;88.28;102199.66;5074465;28;20062;-72
2022/03/06 01:20:19;;;;;;;52.22;34.25;;;;;;;0.08;88.46;102197.81;5074499;28;20048;-72
2022/03/06 01:22:45;;;;;;;52.30;34.50;;;;;;;0.01;89.17;102196.50;5073861;28;20017;-72
2022/03/06 01:25:10;;;;;;;58.75;37.47;;;;;;;-0.03;89.12;102197.06;5074119;28;20103;-72
2022/03/06 01:27:36;;;;;;;58.67;38.13;;;;;;;-0.06;88.74;102200.38;5074192;28;20112;-72
2022/03/06 01:30:05;;;;;;;56.70;36.72;;;;;;;-0.12;88.50;102201.66;5074057;28;20031;-72
2022/03/06 01:32:31;;;;;;;57.00;37.22;;;;;;;-0.09;88.70;102197.53;5070524;28;20024;-72
2022/03/06 01:34:57;;;;;;;59.22;38.03;;;;;;;-0.20;89.03;102206.31;5069756;28;20101;-72
2022/03/06 01:37:22;;;;;;;61.83;38.83;;;;;;;-0.27;89.97;102215.38;5073318;28;20036;-71
2022/03/06 01:39:47;;;;;;;70.15;44.03;;;;;;;-0.27;90.21;102217.09;5073773;28;20498;-69
2022/03/06 01:42:13;;;;;;;55.55;36.47;;;;;;;-0.31;90.64;102207.25;5073923;28;20056;-69
2022/03/06 01:44:38;;;;;;;56.50;34.40;;;;;;;-0.36;90.57;102210.44;5073659;28;20115;-70
2022/03/06 01:47:04;;;;;;;47.88;30.98;;;;;;;-0.31;90.50;102213.34;5073574;28;20154;-68
2022/03/06 01:49:29;;;;;;;48.97;32.30;;;;;;;-0.37;90.43;102208.63;5074093;28;20380;-71
2022/03/06 01:51:54;;;;;;;50.28;31.63;;;;;;;-0.35;90.77;102211.31;5073592;28;20091;-71
2022/03/06 01:54:20;;;;;;;48.65;31.77;;;;;;;-0.29;91.16;102218.66;5073450;28;20027;-71
2022/03/06 01:56:46;;;;;;;49.55;31.67;;;;;;;-0.43;90.95;102218.59;5073642;28;20035;-71
2022/03/06 01:59:11;;;;;;;47.92;31.48;;;;;;;-0.42;92.01;102212.59;5073588;28;20024;-71
2022/03/06 02:01:37;;;;;;;49.72;32.60;;;;;;;-0.51;92.50;102222.38;5073403;28;20036;-71
2022/03/06 02:04:02;;;;;;;49.15;31.60;;;;;;;-0.58;92.47;102213.22;5073554;28;20371;-71
2022/03/06 02:06:29;;;;;;;48.33;32.08;;;;;;;-0.63;93.69;102216.28;5073140;28;20017;-70
2022/03/06 02:08:54;;;;;;;48.72;31.80;;;;;;;-0.72;95.22;102217.41;5073260;28;20414;-70
2022/03/06 02:11:22;;;;;;;48.78;30.98;;;;;;;-0.80;96.66;102215.97;5070569;28;20037;-71
2022/03/06 02:13:47;;;;;;;49.75;32.83;;;;;;;-0.84;98.40;102213.03;5073277;28;20028;-69
2022/03/06 02:16:13;;;;;;;46.17;30.92;;;;;;;-0.88;98.92;102222.28;5073273;28;20525;-68
2022/03/06 02:18:39;;;;;;;46.22;30.15;;;;;;;-0.88;99.13;102219.69;5072988;28;20406;-68
2022/03/06 02:21:10;;;;;;;47.53;31.65;;;;;;;-0.93;99.01;102223.66;5072967;28;20024;-69
2022/03/06 02:23:35;;;;;;;46.15;30.50;;;;;;;-0.94;99.78;102224.44;5072965;28;20064;-69
2022/03/06 02:26:01;;;;;;;49.78;32.22;;;;;;;-0.91;100.00;102219.47;5072967;28;20063;-69
2022/03/06 02:28:26;;;;;;;50.15;32.83;;;;;;;-0.97;100.00;102221.63;5073138;28;20020;-68
2022/03/06 02:30:52;;;;;;;48.63;32.13;;;;;;;-0.98;100.00;102225.00;5072954;28;20037;-68
2022/03/06 02:33:18;;;;;;;49.30;31.58;;;;;;;-0.92;100.00;102222.84;5072716;28;20021;-68
2022/03/06 02:35:43;;;;;;;48.78;31.58;;;;;;;-0.99;100.00;102225.78;5072746;28;20028;-69
2022/03/06 02:38:09;;;;;;;48.63;31.58;;;;;;;-1.02;100.00;102229.09;5072777;28;20028;-68
2022/03/06 02:40:39;;;;;;;47.85;31.10;;;;;;;-1.07;100.00;102235.63;5072748;28;20379;-68
2022/03/06 02:43:06;;;;;;;49.72;31.13;;;;;;;-1.02;100.00;102233.34;5072665;28;20426;-68
2022/03/06 02:45:31;;;;;;;47.08;30.10;;;;;;;-1.09;100.00;102232.91;5072868;28;20378;-69
2022/03/06 02:47:57;;;;;;;46.72;30.00;;;;;;;-1.04;100.00;102240.16;5072304;28;20104;-68
2022/03/06 02:50:26;;;;;;;48.05;30.80;;;;;;;-1.01;100.00;102238.66;5072228;28;20027;-69
2022/03/06 02:52:55;;;;;;;46.70;29.92;;;;;;;-1.09;100.00;102232.03;5072535;28;20086;-68
2022/03/06 02:55:21;;;;;;;49.08;30.98;;;;;;;-1.08;100.00;102233.81;5072493;28;20099;-68
2022/03/06 02:57:47;;;;;;;47.53;30.67;;;;;;;-1.04;100.00;102240.16;5072488;28;20052;-70
2022/03/06 03:00:14;;;;;;;45.80;29.85;;;;;;;-1.09;100.00;102243.31;5072768;28;20100;-69
2022/03/06 03:02:41;;;;;;;46.92;29.98;;;;;;;-1.13;100.00;102228.28;5072475;28;20387;-69
2022/03/06 03:05:08;;;;;;;45.63;29.70;;;;;;;-1.07;100.00;102230.44;5072560;28;20027;-70
2022/03/06 03:07:36;;;;;;;46.03;29.27;;;;;;;-1.13;100.00;102230.00;5072560;28;20077;-69
2022/03/06 03:10:02;;;;;;;45.42;29.17;;;;;;;-1.12;100.00;102236.97;5072516;28;20463;-71
2022/03/06 03:12:28;;;;;;;45.38;28.65;;;;;;;-1.18;100.00;102234.84;5068231;28;20563;-69
2022/03/06 03:14:53;;;;;;;46.70;30.65;;;;;;;-1.20;100.00;102244.19;5072601;28;20100;-70
2022/03/06 03:17:18;;;;;;;45.65;29.98;;;;;;;-1.20;100.00;102243.28;5072350;28;20031;-70
2022/03/06 03:19:44;;;;;;;45.53;29.70;;;;;;;-1.24;100.00;102244.75;5072247;28;20108;-69
2022/03/06 03:22:09;;;;;;;46.63;29.45;;;;;;;-1.20;100.00;102240.69;5072577;28;20020;-70
2022/03/06 03:24:34;;;;;;;47.58;30.48;;;;;;;-1.29;100.00;102239.22;5072444;28;20356;-71
2022/03/06 03:26:59;;;;;;;46.53;29.98;;;;;;;-1.30;100.00;102244.28;5072275;28;20032;-69
2022/03/06 03:29:25;;;;;;;47.00;30.02;;;;;;;-1.45;100.00;102231.97;5072511;28;20024;-71
2022/03/06 03:31:50;;;;;;;47.42;30.77;;;;;;;-1.48;100.00;102236.94;5072125;28;20033;-69
2022/03/06 03:34:16;;;;;;;47.45;30.35;;;;;;;-1.51;100.00;102241.91;5072357;28;20081;-71
2022/03/06 03:36:42;;;;;;;46.63;30.15;;;;;;;-1.57;100.00;102241.44;5072288;28;20026;-70
2022/03/06 03:39:07;;;;;;;46.97;30.33;;;;;;;-1.61;100.00;102236.81;5072376;28;20052;-71
2022/03/06 03:41:33;;;;;;;47.13;30.15;;;;;;;-1.62;100.00;102243.66;5072276;28;20079;-72
2022/03/06 03:43:58;;;;;;;48.05;30.50;;;;;;;-1.70;100.00;102244.78;5068248;28;20028;-69
2022/03/06 03:46:24;;;;;;;47.20;29.98;;;;;;;-1.68;100.00;102240.59;5072393;28;20024;-69
2022/03/06 03:48:49;;;;;;;48.15;30.55;;;;;;;-1.68;100.00;102243.19;5072560;28;20478;-70
2022/03/06 03:51:15;;;;;;;47.88;30.88;;;;;;;-1.79;100.00;102244.97;5072001;28;20028;-69
2022/03/06 03:53:40;;;;;;;47.90;29.73;;;;;;;-1.71;100.00;102240.38;5070924;28;20040;-69
2022/03/06 03:56:06;;;;;;;47.78;30.83;;;;;;;-1.77;100.00;102248.59;5072160;28;20025;-71
2022/03/06 03:58:34;;;;;;;48.35;30.70;;;;;;;-1.81;100.00;102256.03;5072141;28;20064;-68
2022/03/06 04:00:59;;;;;;;47.30;31.40;;;;;;;-1.84;100.00;102258.38;5070453;28;20032;-69
2022/03/06 04:03:25;;;;;;;47.20;30.55;;;;;;;-1.89;100.00;102257.09;5075553;28;20063;-68
2022/03/06 04:05:51;;;;;;;48.45;30.83;;;;;;;-1.91;100.00;102259.59;5075594;28;20036;-67
2022/03/06 04:08:17;;;;;;;48.40;30.55;;;;;;;-1.99;100.00;102261.59;5075556;28;20021;-68
2022/03/06 04:10:42;;;;;;;49.13;30.75;;;;;;;-2.04;100.00;102262.00;5075840;28;20075;-68
2022/03/06 04:13:08;;;;;;;49.03;30.90;;;;;;;-2.12;100.00;102259.72;5075575;28;20410;-68
2022/03/06 04:15:33;;;;;;;48.40;29.85;;;;;;;-2.08;100.00;102270.31;5075425;28;20521;-68
2022/03/06 04:17:59;;;;;;;48.63;31.08;;;;;;;-2.14;100.00;102270.75;5071757;28;20028;-67
2022/03/06 04:20:24;;;;;;;46.83;30.75;;;;;;;-2.15;100.00;102275.03;5075245;28;20036;-68
2022/03/06 04:22:50;;;;;;;46.58;29.77;;;;;;;-2.15;100.00;102275.03;5075127;28;20040;-68
2022/03/06 04:25:15;;;;;;;46.97;30.73;;;;;;;-2.20;100.00;102281.56;5075310;28;20025;-68
2022/03/06 04:27:41;;;;;;;46.65;29.90;;;;;;;-2.13;100.00;102278.63;5075216;28;20460;-68
2022/03/06 04:30:07;;;;;;;46.35;30.35;;;;;;;-2.13;100.00;102283.81;5075510;28;20036;-68
2022/03/06 04:32:32;;;;;;;47.83;30.83;;;;;;;-2.17;100.00;102286.97;5074950;28;20028;-68
2022/03/06 04:34:58;;;;;;;48.70;30.83;;;;;;;-2.18;100.00;102279.97;5075099;28;20123;-68
2022/03/06 04:37:24;;;;;;;47.80;31.58;;;;;;;-2.26;100.00;102293.13;5075219;28;20033;-68
2022/03/06 04:39:49;;;;;;;48.38;31.65;;;;;;;-2.21;100.00;102289.19;5074801;28;20103;-68
2022/03/06 04:42:14;;;;;;;47.55;31.02;;;;;;;-2.28;100.00;102293.00;5075213;28;20025;-71
2022/03/06 04:44:40;;;;;;;48.28;30.98;;;;;;;-2.30;100.00;102294.53;5075020;28;20025;-72
2022/03/06 04:47:06;;;;;;;47.83;31.38;;;;;;;-2.31;100.00;102297.94;5075123;28;20050;-71
2022/03/06 04:49:32;;;;;;;47.63;31.17;;;;;;;-2.31;100.00;102300.53;5074899;28;20039;-69
2022/03/06 04:51:57;;;;;;;47.70;31.27;;;;;;;-2.33;100.00;102304.66;5074847;28;20535;-69
2022/03/06 04:54:22;;;;;;;47.03;30.83;;;;;;;-2.41;100.00;102304.06;5074666;28;20029;-69
2022/03/06 04:56:48;;;;;;;46.45;31.60;;;;;;;-2.48;100.00;102305.25;5074811;28;20028;-69
2022/03/06 04:59:13;;;;;;;47.80;31.55;;;;;;;-2.46;100.00;102305.41;5075044;28;20020;-69
2022/03/06 05:01:39;;;;;;;46.55;30.63;;;;;;;-2.41;100.00;102322.19;5074435;28;20032;-70
2022/03/06 05:04:04;;;;;;;48.10;31.45;;;;;;;-2.39;100.00;102325.78;5074562;28;20037;-69
2022/03/06 05:06:29;;;;;;;46.25;31.48;;;;;;;-2.38;100.00;102325.03;5074708;28;20021;-69
2022/03/06 05:08:55;;;;;;;46.90;30.88;;;;;;;-2.38;100.00;102337.09;5074476;28;20028;-68
2022/03/06 05:11:20;;;;;;;46.75;30.55;;;;;;;-2.44;100.00;102328.81;5073710;28;20024;-69
2022/03/06 05:13:46;;;;;;;45.97;30.85;;;;;;;-2.46;100.00;102324.41;5074063;28;20032;-69
2022/03/06 05:16:11;;;;;;;47.53;31.30;;;;;;;-2.50;100.00;102329.22;5074273;28;20104;-70
2022/03/06 05:18:37;;;;;;;46.45;31.52;;;;;;;-2.57;100.00;102329.50;5073108;28;20036;-69
2022/03/06 05:21:03;;;;;;;46.55;31.85;;;;;;;-2.55;100.00;102330.53;5074156;28;20391;-68
2022/03/06 05:23:28;;;;;;;46.40;31.02;;;;;;;-2.61;100.00;102338.69;5074311;28;20024;-68
2022/03/06 05:25:54;;;;;;;48.05;31.30;;;;;;;-2.56;100.00;102332.22;5074261;28;20123;-69
2022/03/06 05:28:20;;;;;;;47.55;31.92;;;;;;;-2.60;100.00;102337.03;5073929;28;20025;-69
2022/03/06 05:30:46;;;;;;;48.03;32.70;;;;;;;-2.60;100.00;102344.81;5073926;28;20487;-69
2022/03/06 05:33:11;;;;;;;47.55;33.05;;;;;;;-2.63;100.00;102340.28;5074005;28;20028;-68
2022/03/06 05:35:36;;;;;;;47.42;32.03;;;;;;;-2.72;100.00;102344.69;5073915;28;20024;-69
2022/03/06 05:38:02;;;;;;;47.55;31.90;;;;;;;-2.74;100.00;102346.25;5073781;28;20044;-72
2022/03/06 05:40:27;;;;;;;48.35;32.38;;;;;;;-2.76;100.00;102348.72;5073972;28;20112;-72
2022/03/06 05:42:52;;;;;;;47.83;32.20;;;;;;;-2.77;100.00;102348.59;5073606;28;20100;-72
2022/03/06 05:45:18;;;;;;;46.78;32.22;;;;;;;-2.82;100.00;102354.28;5073820;28;20043;-72
2022/03/06 05:47:43;;;;;;;47.92;32.92;;;;;;;-2.83;100.00;102352.47;5073879;28;20131;-72
2022/03/06 05:50:09;;;;;;;46.47;31.10;;;;;;;-2.86;100.00;102362.56;5073611;28;20025;-72
2022/03/06 05:52:35;;;;;;;47.13;33.03;;;;;;;-2.79;100.00;102357.94;5073870;28;20037;-72
2022/03/06 05:55:01;;;;;;;46.72;31.75;;;;;;;-2.83;100.00;102362.81;5073798;28;20094;-71
2022/03/06 05:57:26;;;;;;;46.60;31.55;;;;;;;-2.84;100.00;102363.63;5073293;28;20467;-72
2022/03/06 05:59:52;;;;;;;45.15;31.63;;;;;;;-2.86;100.00;102359.97;5073894;28;20020;-72
2022/03/06 06:02:19;;;;;;;46.53;32.80;;;;;;;-2.90;100.00;102359.59;5073082;28;20047;-71
2022/03/06 06:04:45;;;;;;;47.55;32.25;;;;;;;-2.92;100.00;102367.25;5073333;28;20095;-72
2022/03/06 06:07:10;;;;;;;47.95;32.63;;;;;;;-2.91;100.00;102369.06;5073720;28;20041;-72
2022/03/06 06:09:36;;;;;;;45.83;31.88;;;;;;;-2.94;100.00;102370.47;5073136;28;20045;-69
2022/03/06 06:12:02;;;;;;;47.85;33.50;;;;;;;-2.97;100.00;102381.50;5073136;28;20082;-71
2022/03/06 06:14:28;;;;;;;48.30;32.97;;;;;;;-2.93;100.00;102380.06;5073205;28;20021;-67
2022/03/06 06:16:53;;;;;;;47.63;32.90;;;;;;;-2.98;100.00;102383.16;5073135;28;20425;-69
2022/03/06 06:19:18;;;;;;;46.58;32.15;;;;;;;-2.94;100.00;102389.53;5073079;28;20486;-69
2022/03/06 06:21:44;;;;;;;47.08;32.55;;;;;;;-2.95;100.00;102387.69;5073095;28;20020;-69
2022/03/06 06:24:14;;;;;;;48.60;33.75;;;;;;;-2.94;100.00;102388.59;5072846;28;20024;-69
2022/03/06 06:26:43;;;;;;;46.42;32.33;;;;;;;-2.91;100.00;102394.94;5069978;28;20483;-71
2022/03/06 06:29:09;;;;;;;48.25;32.80;;;;;;;-2.93;100.00;102401.66;5064171;28;20024;-71
2022/03/06 06:31:34;;;;;;;47.45;33.10;;;;;;;-2.88;100.00;102400.38;5065086;28;20086;-69
2022/03/06 06:34:00;;;;;;;47.95;33.45;;;;;;;-2.95;100.00;102398.06;5063552;28;20043;-70
2022/03/06 06:36:26;;;;;;;45.55;32.05;;;;;;;-2.95;100.00;102400.63;5063948;28;20178;-69
2022/03/06 06:38:52;;;;;;;47.38;32.97;;;;;;;-2.89;100.00;102402.84;5064898;28;20035;-71
2022/03/06 06:41:17;;;;;;;47.08;32.60;;;;;;;-2.82;100.00;102397.41;5063871;28;20024;-68
2022/03/06 06:43:43;;;;;;;46.00;32.25;;;;;;;-2.84;100.00;102406.69;5063118;28;20435;-69
2022/03/06 06:46:09;;;;;;;45.97;32.70;;;;;;;-2.88;100.00;102400.38;5063171;28;20111;-70
2022/03/06 06:48:35;;;;;;;46.50;33.38;;;;;;;-2.84;100.00;102402.44;5064579;28;20021;-69
2022/03/06 06:51:00;;;;;;;45.60;32.33;;;;;;;-2.79;100.00;102410.59;5064560;28;20055;-70
2022/03/06 06:53:26;;;;;;;46.80;33.88;;;;;;;-2.82;100.00;102421.59;5064173;28;20052;-69
2022/03/06 06:55:51;;;;;;;47.05;32.78;;;;;;;-2.72;100.00;102414.59;5063144;28;20085;-69
2022/03/06 06:58:16;;;;;;;47.80;33.80;;;;;;;-2.71;100.00;102412.16;5063675;28;20063;-70
2022/03/06 07:00:42;;;;;;;46.35;32.60;;;;;;;-2.64;100.00;102424.84;5064219;28;20028;-69
2022/03/06 07:03:08;;;;;;;45.50;32.75;;;;;;;-2.59;100.00;102420.03;5064165;28;20040;-68
2022/03/06 07:05:34;;;;;;;46.67;33.40;;;;;;;-2.55;100.00;102422.09;5063116;28;20350;-70
2022/03/06 07:07:59;;;;;;;47.47;33.55;;;;;;;-2.55;100.00;102427.28;5064668;28;20029;-70
2022/03/06 07:10:24;;;;;;;46.08;32.60;;;;;;;-2.42;100.00;102434.34;5064378;28;20032;-72
2022/03/06 07:12:53;;;;;;;46.20;32.60;;;;;;;-2.39;100.00;102434.59;5063485;28;20138;-72
2022/03/06 07:15:19;;;;;;;44.47;31.98;;;;;;;-2.33;100.00;102436.78;5063119;28;20025;-72
2022/03/06 07:17:44;;;;;;;45.00;31.80;;;;;;;-2.25;100.00;102437.44;5063803;28;20017;-71
2022/03/06 07:20:10;;;;;;;46.78;33.30;;;;;;;-2.13;100.00;102431.53;5064493;28;20134;-71
2022/03/06 07:22:36;;;;;;;45.63;32.65;;;;;;;-1.96;100.00;102438.09;5063794;28;20071;-71
2022/03/06 07:25:02;;;;;;;45.42;33.10;;;;;;;-1.86;100.00;102439.75;5063139;28;20472;-70
2022/03/06 07:27:28;;;;;;;42.92;30.60;;;;;;;-1.75;100.00;102438.00;5063981;28;20559;-73
2022/03/06 07:29:53;;;;;;;44.25;31.30;;;;;;;-1.61;100.00;102444.28;5063542;28;20111;-70
2022/03/06 07:32:18;;;;;;;45.15;31.80;;;;;;;-1.51;100.00;102445.94;5063670;28;20028;-72
2022/03/06 07:34:44;;;;;;;42.58;30.13;;;;;;;-1.35;100.00;102450.66;5063843;28;20025;-72
2022/03/06 07:37:09;;;;;;;42.17;30.30;;;;;;;-1.34;100.00;102452.44;5056569;28;20017;-72
2022/03/06 07:39:34;;;;;;;43.95;31.33;;;;;;;-1.19;100.00;102457.91;5067938;28;20039;-69
2022/03/06 07:42:00;;;;;;;43.35;30.92;;;;;;;-1.02;100.00;102456.63;5067694;28;20040;-71
2022/03/06 07:44:26;;;;;;;42.10;29.65;;;;;;;-0.92;100.00;102466.94;5068095;28;20044;-71
2022/03/06 07:46:51;;;;;;;39.65;28.08;;;;;;;-0.75;100.00;102469.13;5065840;28;20855;-71
2022/03/06 07:49:17;;;;;;;41.15;28.50;;;;;;;-0.71;100.00;102472.88;5067355;28;20024;-70
2022/03/06 07:51:42;;;;;;;41.38;29.05;;;;;;;-0.62;100.00;102478.75;5067247;28;20040;-71
2022/03/06 07:54:13;;;;;;;40.65;28.42;;;;;;;-0.53;100.00;102482.03;5067823;28;20032;-70
2022/03/06 07:56:38;;;;;;;39.80;28.45;;;;;;;-0.47;100.00;102481.59;5066721;28;20029;-70
2022/03/06 07:59:04;;;;;;;39.58;28.70;;;;;;;-0.39;100.00;102482.19;5067954;28;20036;-71
2022/03/06 08:01:29;;;;;;;39.63;28.17;;;;;;;-0.21;100.00;102488.75;5067530;28;20028;-70
2022/03/06 08:03:54;;;;;;;39.58;28.00;;;;;;;-0.09;100.00;102491.34;5066268;28;20055;-69
2022/03/06 08:06:20;;;;;;;40.90;28.17;;;;;;;0.01;100.00;102497.25;5065492;28;20452;-70
2022/03/06 08:08:45;;;;;;;39.90;27.73;;;;;;;0.11;100.00;102491.94;5066244;28;20082;-69
2022/03/06 08:11:10;;;;;;;38.47;26.48;;;;;;;0.29;100.00;102490.66;5066485;28;20032;-70
2022/03/06 08:13:36;;;;;;;40.22;27.75;;;;;;;0.42;100.00;102492.44;5066091;28;20032;-70
2022/03/06 08:16:01;;;;;;;39.33;27.10;;;;;;;0.62;100.00;102503.38;5064291;28;20868;-70
2022/03/06 08:18:26;;;;;;;37.45;26.63;;;;;;;0.81;100.00;102497.78;5066017;28;20032;-73
2022/03/06 08:20:52;;;;;;;38.80;27.40;;;;;;;0.88;100.00;102501.72;5066838;28;20040;-73
2022/03/06 08:23:17;;;;;;;37.47;25.20;;;;;;;1.02;100.00;102498.34;5064720;28;20037;-73
2022/03/06 08:25:42;;;;;;;37.10;26.58;;;;;;;1.20;100.00;102511.78;5066093;28;20029;-73
2022/03/06 08:28:08;;;;;;;36.25;25.65;;;;;;;1.41;100.00;102507.13;5066855;28;20077;-73
2022/03/06 08:30:33;;;;;;;36.58;26.75;;;;;;;1.55;100.00;102508.97;5066413;28;20037;-73
2022/03/06 08:32:58;;;;;;;35.78;25.13;;;;;;;1.78;100.00;102509.63;5066937;28;20483;-72
2022/03/06 08:35:24;;;;;;;34.85;24.42;;;;;;;1.79;100.00;102502.69;5065518;28;20068;-72
2022/03/06 08:37:49;;;;;;;35.88;25.50;;;;;;;1.85;100.00;102513.53;5066172;28;20033;-72
2022/03/06 08:40:14;;;;;;;35.40;24.92;;;;;;;1.92;100.00;102523.56;5066054;28;20490;-72
2022/03/06 08:42:40;;;;;;;36.30;25.50;;;;;;;1.97;98.65;102526.50;5065893;28;20090;-72
2022/03/06 08:45:06;;;;;;;36.15;25.85;;;;;;;2.04;99.42;102529.59;5065272;28;20117;-70
2022/03/06 08:47:31;;;;;;;35.33;25.08;;;;;;;2.32;98.20;102527.91;5066001;28;20163;-69
2022/03/06 08:49:56;;;;;;;35.03;24.30;;;;;;;2.53;95.88;102533.59;5066177;28;20107;-70
2022/03/06 08:52:22;;;;;;;34.63;23.88;;;;;;;2.59;93.90;102533.97;5065625;28;20132;-69
2022/03/06 08:54:47;;;;;;;34.60;24.10;;;;;;;2.61;93.80;102524.56;5065127;28;20037;-71
2022/03/06 08:57:12;;;;;;;34.42;23.98;;;;;;;2.76;93.46;102522.00;5066299;28;20032;-70
2022/03/06 08:59:38;;;;;;;33.50;22.90;;;;;;;3.06;91.04;102529.94;5066116;28;20056;-71
2022/03/06 09:02:03;;;;;;;34.00;23.83;;;;;;;3.38;90.11;102524.06;5072183;28;20066;-68
2022/03/06 09:04:31;;;;;;;34.03;23.95;;;;;;;3.60;88.30;102530.59;5073051;28;20052;-68
2022/03/06 09:06:57;;;;;;;33.38;22.95;;;;;;;3.90;88.30;102530.59;5074759;28;20024;-68
2022/03/06 09:09:22;;;;;;;33.75;22.55;;;;;;;4.07;84.92;102527.25;5063645;28;20078;-70
2022/03/06 09:11:47;;;;;;;33.05;22.90;;;;;;;4.30;82.82;102533.78;5064803;28;20028;-70
2022/03/06 09:14:13;;;;;;;34.25;25.02;;;;;;;4.48;80.70;102540.88;5064041;28;20068;-71
2022/03/06 09:16:38;;;;;;;31.48;21.75;;;;;;;4.66;79.51;102538.38;5064676;28;20082;-69
2022/03/06 09:19:04;;;;;;;32.67;21.77;;;;;;;4.78;78.50;102535.56;5065561;28;20029;-71
2022/03/06 09:21:29;;;;;;;31.40;21.23;;;;;;;4.97;77.71;102533.13;5064351;28;20046;-70
2022/03/06 09:23:54;;;;;;;32.65;22.70;;;;;;;4.97;77.49;102535.75;5064607;28;20034;-69
2022/03/06 09:26:20;;;;;;;31.55;21.73;;;;;;;4.99;76.10;102539.34;5065688;28;20021;-69
2022/03/06 09:28:45;;;;;;;32.22;22.10;;;;;;;5.13;76.62;102534.84;5066228;28;20023;-69
2022/03/06 09:31:11;;;;;;;31.67;21.42;;;;;;;5.45;74.35;102530.41;5065870;28;21023;-70
2022/03/06 09:33:36;;;;;;;30.65;21.48;;;;;;;5.80;73.28;102535.69;5064081;28;20478;-69
2022/03/06 09:36:02;;;;;;;31.05;21.33;;;;;;;5.94;72.83;102535.53;5064898;28;20028;-70
2022/03/06 09:38:28;;;;;;;32.90;22.17;;;;;;;5.90;70.73;102533.59;5065551;28;20025;-68
2022/03/06 09:40:55;;;;;;;30.13;20.73;;;;;;;5.92;70.47;102534.53;5065090;28;20162;-70
2022/03/06 09:43:20;;;;;;;30.08;20.55;;;;;;;6.00;70.11;102529.75;5064755;28;20025;-68
2022/03/06 09:45:49;;;;;;;31.00;21.17;;;;;;;6.26;68.56;102531.03;5065051;28;20362;-69
2022/03/06 09:48:16;;;;;;;30.48;21.02;;;;;;;6.69;66.82;102526.03;5065395;28;20029;-71
2022/03/06 09:50:45;;;;;;;31.20;21.02;;;;;;;7.17;66.53;102528.22;5066129;28;20566;-70
2022/03/06 09:53:10;;;;;;;30.17;20.02;;;;;;;7.89;63.25;102526.06;5064038;28;20162;-70
2022/03/06 09:55:35;;;;;;;30.23;20.02;;;;;;;8.30;62.25;102521.63;5064833;28;20123;-69
2022/03/06 09:58:01;;;;;;;30.55;21.00;;;;;;;8.62;60.73;102527.34;5064507;28;20040;-68
2022/03/06 10:00:26;;;;;;;29.55;20.20;;;;;;;9.25;59.30;102534.09;5064408;28;20025;-69
2022/03/06 10:02:59;;;;;;;29.95;19.73;;;;;;;9.49;56.45;102525.25;5063851;28;20047;-68
2022/03/06 10:05:39;;;;;;;28.90;19.33;;;;;;;9.91;57.36;102517.91;5063729;28;20572;-70
2022/03/06 10:08:18;;;;;;;30.00;19.30;;;;;;;10.37;57.12;102525.56;5065057;28;20029;-69
2022/03/06 10:10:45;;;;;;;28.50;19.05;;;;;;;10.67;51.62;102523.00;5064817;28;20491;-70
2022/03/06 10:13:34;;;;;;;28.65;18.38;;;;;;;11.16;47.14;102526.22;5063360;28;20128;-72
2022/03/06 10:15:59;;;;;;;28.35;18.75;;;;;;;11.06;44.13;102522.38;5064222;28;20379;-70
2022/03/06 10:18:24;;;;;;;27.58;18.30;;;;;;;11.37;44.39;102527.66;5064982;28;20028;-70
2022/03/06 10:20:50;;;;;;;27.40;17.70;;;;;;;11.89;42.22;102526.41;5065069;28;20475;-71
2022/03/06 10:23:27;;;;;;;27.27;17.55;;;;;;;12.29;42.24;102527.44;5063566;28;20461;-72
2022/03/06 10:26:04;;;;;;;27.10;17.85;;;;;;;12.47;40.80;102532.28;5064274;28;20024;-70
2022/03/06 10:28:29;;;;;;;27.25;17.40;;;;;;;12.89;40.23;102528.78;5064749;28;20024;-70
2022/03/06 10:31:03;;;;;;;28.52;17.58;;;;;;;13.33;40.20;102530.56;5064631;28;20033;-69
2022/03/06 10:33:28;;;;;;;26.10;17.30;;;;;;;13.67;38.25;102530.34;5063439;28;20090;-68
2022/03/06 10:35:55;;;;;;;26.80;17.42;;;;;;;13.85;36.89;102525.38;5064108;28;20024;-72
2022/03/06 10:38:30;;;;;;;26.63;17.48;;;;;;;14.08;36.75;102530.16;5064464;28;20075;-70
2022/03/06 10:40:58;;;;;;;27.05;17.23;;;;;;;13.95;35.58;102537.94;5063705;28;20117;-69
2022/03/06 10:43:26;;;;;;;26.50;16.48;;;;;;;14.47;35.05;102536.97;5063182;28;20024;-69
2022/03/06 10:46:09;;;;;;;25.38;16.23;;;;;;;14.74;35.98;102535.66;5064218;28;20029;-69
2022/03/06 10:48:35;;;;;;;24.90;15.98;;;;;;;15.13;33.34;102534.34;5064130;28;20037;-69
2022/03/06 10:51:02;;;;;;;24.65;15.82;;;;;;;15.39;33.07;102528.44;5064493;28;20480;-68
2022/03/06 10:53:28;;;;;;;24.45;15.70;;;;;;;15.43;32.89;102527.59;5063020;28;20144;-69
2022/03/06 10:55:54;;;;;;;25.40;15.60;;;;;;;15.39;32.35;102515.13;5064037;28;20039;-70
2022/03/06 10:58:21;;;;;;;25.25;16.38;;;;;;;15.54;32.00;102525.97;5067076;28;20099;-69
2022/03/06 11:00:48;;;;;;;25.00;15.07;;;;;;;15.68;31.53;102519.00;5072699;28;20024;-69